createdAt,value
2023-04-12T00:01:11.221Z,8.60
2023-04-12T00:03:39.254Z,12.80
2023-04-12T00:06:07.215Z,12.77
2023-04-12T00:08:35.390Z,18.60
2023-04-12T00:11:03.928Z,11.67
2023-04-12T00:13:31.429Z,11.20
2023-04-12T00:15:59.025Z,12.00
2023-04-12T00:18:27.205Z,11.97
2023-04-12T00:20:55.904Z,10.93
2023-04-12T00:23:23.302Z,16.10
2023-04-12T00:25:50.751Z,9.70
2023-04-12T00:28:18.115Z,13.03
2023-04-12T00:30:45.815Z,12.87
2023-04-12T00:33:13.167Z,11.27
2023-04-12T00:35:40.652Z,9.00
2023-04-12T00:38:09.638Z,13.97
2023-04-12T00:40:37.496Z,13.67
2023-04-12T00:43:04.789Z,15.37
2023-04-12T00:45:32.307Z,14.23
2023-04-12T00:47:59.821Z,12.27
2023-04-12T00:50:27.279Z,12.40
2023-04-12T00:52:54.723Z,13.20
2023-04-12T00:55:22.117Z,14.27
2023-04-12T00:57:49.466Z,13.17
2023-04-12T01:00:17.360Z,19.23
2023-04-12T01:02:50.159Z,11.67
2023-04-12T01:05:20.270Z,13.43
2023-04-12T01:07:54.881Z,12.97
2023-04-12T01:10:26.650Z,12.93
2023-04-12T01:12:58.508Z,14.53
2023-04-12T01:15:27.036Z,12.47
2023-04-12T01:17:59.022Z,12.07
2023-04-12T01:20:28.523Z,11.30
2023-04-12T01:23:12.638Z,13.57
2023-04-12T01:25:50.897Z,16.90
2023-04-12T01:28:22.445Z,12.40
2023-04-12T01:30:53.162Z,13.90
2023-04-12T01:33:21.348Z,13.27
2023-04-12T01:35:49.279Z,13.47
2023-04-12T01:38:16.705Z,14.30
2023-04-12T01:40:44.182Z,15.47
2023-04-12T01:43:12.550Z,15.93
2023-04-12T01:45:40.376Z,13.73
2023-04-12T01:48:09.334Z,16.83
2023-04-12T01:50:38.249Z,16.27
2023-04-12T01:53:10.081Z,13.50
2023-04-12T01:55:38.704Z,16.53
2023-04-12T01:58:06.146Z,13.50
2023-04-12T02:00:35.244Z,13.03
2023-04-12T02:03:03.133Z,13.23
2023-04-12T02:05:31.176Z,16.67
2023-04-12T02:07:58.668Z,11.00
2023-04-12T02:10:30.294Z,13.50
2023-04-12T02:13:01.162Z,14.73
2023-04-12T02:15:29.192Z,16.00
2023-04-12T02:17:58.602Z,18.37
2023-04-12T02:20:26.778Z,14.33
2023-04-12T02:22:54.432Z,11.87
2023-04-12T02:25:21.799Z,10.90
2023-04-12T02:27:49.167Z,13.70
2023-04-12T02:30:16.807Z,13.33
2023-04-12T02:32:44.765Z,9.90
2023-04-12T02:35:14.015Z,13.33
2023-04-12T02:37:43.031Z,11.90
2023-04-12T02:40:11.387Z,14.07
2023-04-12T02:42:40.342Z,11.00
2023-04-12T02:45:08.014Z,14.60
2023-04-12T02:47:35.410Z,11.00
2023-04-12T02:50:02.887Z,11.77
2023-04-12T02:52:30.233Z,11.53
2023-04-12T02:54:58.098Z,13.33
2023-04-12T02:57:25.660Z,13.83
2023-04-12T02:59:55.863Z,9.90
2023-04-12T03:02:23.828Z,9.73
2023-04-12T03:04:51.278Z,12.20
2023-04-12T03:07:19.485Z,10.10
2023-04-12T03:09:48.386Z,9.00
2023-04-12T03:12:16.488Z,12.10
2023-04-12T03:14:43.940Z,10.27
2023-04-12T03:17:11.404Z,9.80
2023-04-12T03:19:39.261Z,9.63
2023-04-12T03:22:06.752Z,11.40
2023-04-12T03:24:34.595Z,10.37
2023-04-12T03:27:02.715Z,11.63
2023-04-12T03:29:30.851Z,9.23
2023-04-12T03:31:59.237Z,8.30
2023-04-12T03:34:31.982Z,9.50
2023-04-12T03:36:59.710Z,12.60
2023-04-12T03:39:27.091Z,8.80
2023-04-12T03:41:54.709Z,9.90
2023-04-12T03:44:22.383Z,10.30
2023-04-12T03:46:49.996Z,8.27
2023-04-12T03:49:17.453Z,11.80
2023-04-12T03:51:45.184Z,9.60
2023-04-12T03:54:15.826Z,15.10
2023-04-12T03:56:44.252Z,10.70
2023-04-12T03:59:13.809Z,8.00
2023-04-12T04:01:41.717Z,8.70
2023-04-12T04:04:09.293Z,8.10
2023-04-12T04:06:36.880Z,8.50
2023-04-12T04:09:04.328Z,7.87
2023-04-12T04:11:31.810Z,9.37
2023-04-12T04:13:59.243Z,9.73
2023-04-12T04:16:28.315Z,9.73
2023-04-12T04:18:55.810Z,10.03
2023-04-12T04:21:23.660Z,9.50
2023-04-12T04:23:51.833Z,12.00
2023-04-12T04:26:20.057Z,10.40
2023-04-12T04:28:47.438Z,10.10
2023-04-12T04:31:16.521Z,12.17
2023-04-12T04:33:44.577Z,13.03
2023-04-12T04:36:12.480Z,9.90
2023-04-12T04:38:40.333Z,9.37
2023-04-12T04:41:09.026Z,10.83
2023-04-12T04:43:37.972Z,10.40
2023-04-12T04:46:05.338Z,11.83
2023-04-12T04:48:32.701Z,11.27
2023-04-12T04:51:01.300Z,11.77
2023-04-12T04:53:28.673Z,11.07
2023-04-12T04:55:59.419Z,11.40
2023-04-12T04:58:26.728Z,12.13
2023-04-12T05:00:57.111Z,10.33
2023-04-12T05:03:27.639Z,9.67
2023-04-12T05:05:57.160Z,9.73
2023-04-12T05:08:25.022Z,11.83
2023-04-12T05:10:53.315Z,10.70
2023-04-12T05:13:22.201Z,12.10
2023-04-12T05:15:49.740Z,10.80
2023-04-12T05:18:17.899Z,11.53
2023-04-12T05:20:45.865Z,11.50
2023-04-12T05:23:13.284Z,11.70
2023-04-12T05:25:43.341Z,11.43
2023-04-12T05:28:12.293Z,10.43
2023-04-12T05:30:39.954Z,9.63
2023-04-12T05:33:07.290Z,11.87
2023-04-12T05:35:34.714Z,9.70
2023-04-12T05:38:02.051Z,10.83
2023-04-12T05:40:31.457Z,8.60
2023-04-12T05:42:59.158Z,9.13
2023-04-12T05:45:26.905Z,8.77
2023-04-12T05:47:55.214Z,8.67
2023-04-12T05:50:22.592Z,8.77
2023-04-12T05:52:51.481Z,9.10
2023-04-12T05:55:18.851Z,8.90
2023-04-12T05:57:49.169Z,8.20
2023-04-12T06:00:17.498Z,8.60
2023-04-12T06:02:47.396Z,8.83
2023-04-12T06:05:16.874Z,9.17
2023-04-12T06:07:47.887Z,9.27
2023-04-12T06:10:18.988Z,9.20
2023-04-12T06:12:46.334Z,8.70
2023-04-12T06:15:13.641Z,8.13
2023-04-12T06:17:41.007Z,7.90
2023-04-12T06:20:09.461Z,8.80
2023-04-12T06:22:37.428Z,9.13
2023-04-12T06:25:05.340Z,7.90
2023-04-12T06:27:32.672Z,8.07
2023-04-12T06:30:00.089Z,9.73
2023-04-12T06:32:27.419Z,9.53
2023-04-12T06:34:54.942Z,8.73
2023-04-12T06:37:22.354Z,7.87
2023-04-12T06:39:49.713Z,10.47
2023-04-12T06:42:17.966Z,7.73
2023-04-12T06:44:45.317Z,9.80
2023-04-12T06:47:12.746Z,8.33
2023-04-12T06:49:40.130Z,8.30
2023-04-12T06:52:07.550Z,8.07
2023-04-12T06:54:38.260Z,8.70
2023-04-12T06:57:07.146Z,8.10
2023-04-12T06:59:34.542Z,8.00
2023-04-12T07:02:02.006Z,7.50
2023-04-12T07:04:29.470Z,8.33
2023-04-12T07:06:56.844Z,9.30
2023-04-12T07:09:24.218Z,7.30
2023-04-12T07:11:51.507Z,8.97
2023-04-12T07:14:18.875Z,7.70
2023-04-12T07:16:46.338Z,7.77
2023-04-12T07:19:13.709Z,7.50
2023-04-12T07:21:41.376Z,9.63
2023-04-12T07:24:08.745Z,7.50
2023-04-12T07:26:36.183Z,7.80
2023-04-12T07:29:03.545Z,7.97
2023-04-12T07:31:30.880Z,8.60
2023-04-12T07:33:58.361Z,8.10
2023-04-12T07:36:26.931Z,7.50
2023-04-12T07:38:56.393Z,7.53
2023-04-12T07:41:24.104Z,7.60
2023-04-12T07:43:51.600Z,8.23
2023-04-12T07:46:19.001Z,8.50
2023-04-12T07:48:46.414Z,7.63
2023-04-12T07:51:13.723Z,7.97
2023-04-12T07:53:41.840Z,7.70
2023-04-12T07:56:09.258Z,7.70
2023-04-12T07:58:36.703Z,7.70
2023-04-12T08:01:04.045Z,7.60
2023-04-12T08:03:31.537Z,8.20
2023-04-12T08:05:59.346Z,8.53
2023-04-12T08:08:26.882Z,8.50
2023-04-12T08:10:54.270Z,7.97
2023-04-12T08:13:21.628Z,7.50
2023-04-12T08:15:49.014Z,8.07
2023-04-12T08:18:16.362Z,8.00
2023-04-12T08:20:45.358Z,9.00
2023-04-12T08:23:12.803Z,9.20
2023-04-12T08:25:40.401Z,9.20
2023-04-12T08:28:09.402Z,8.67
2023-04-12T08:30:36.725Z,7.73
2023-04-12T08:33:04.237Z,7.43
2023-04-12T08:35:32.438Z,7.50
2023-04-12T08:38:01.415Z,8.00
2023-04-12T08:40:30.553Z,7.90
2023-04-12T08:42:59.458Z,7.40
2023-04-12T08:45:28.361Z,8.60
2023-04-12T08:47:56.257Z,8.13
2023-04-12T08:50:23.912Z,11.43
2023-04-12T08:52:51.952Z,9.17
2023-04-12T08:55:19.301Z,9.07
2023-04-12T08:57:47.060Z,8.30
2023-04-12T09:00:15.703Z,8.97
2023-04-12T09:02:45.688Z,8.10
2023-04-12T09:05:14.377Z,7.83
2023-04-12T09:07:44.095Z,7.80
2023-04-12T09:10:11.670Z,8.00
2023-04-12T09:12:44.064Z,8.23
2023-04-12T09:15:18.791Z,8.27
2023-04-12T09:17:48.632Z,8.07
2023-04-12T09:20:24.836Z,8.07
2023-04-12T09:22:54.758Z,8.10
2023-04-12T09:25:27.240Z,7.83
2023-04-12T09:27:58.157Z,9.00
2023-04-12T09:30:25.719Z,8.10
2023-04-12T09:32:55.584Z,7.33
2023-04-12T09:35:37.600Z,7.47
2023-04-12T09:38:10.480Z,7.70
2023-04-12T09:40:41.527Z,8.93
2023-04-12T09:43:11.225Z,8.17
2023-04-12T09:45:41.169Z,7.67
2023-04-12T09:48:10.819Z,8.20
2023-04-12T09:50:39.251Z,8.20
2023-04-12T09:53:09.341Z,7.53
2023-04-12T09:55:37.159Z,8.87
2023-04-12T09:58:06.671Z,8.50
2023-04-12T10:00:36.443Z,8.13
2023-04-12T10:03:09.566Z,8.53
2023-04-12T10:05:39.736Z,7.60
2023-04-12T10:08:07.776Z,7.60
2023-04-12T10:10:37.904Z,9.10
2023-04-12T10:13:08.807Z,8.20
2023-04-12T10:15:36.930Z,7.87
2023-04-12T10:18:05.598Z,8.47
2023-04-12T10:20:34.862Z,9.80
2023-04-12T10:23:04.828Z,8.70
2023-04-12T10:25:34.686Z,11.67
2023-04-12T10:28:16.899Z,8.70
2023-04-12T10:30:45.931Z,12.73
2023-04-12T10:33:17.447Z,7.90
2023-04-12T10:36:00.944Z,8.13
2023-04-12T10:38:35.270Z,7.70
2023-04-12T10:41:09.081Z,7.53
2023-04-12T10:43:38.334Z,7.10
2023-04-12T10:46:07.713Z,9.40
2023-04-12T10:48:37.147Z,7.70
2023-04-12T10:51:17.086Z,8.80
2023-04-12T10:53:46.845Z,7.60
2023-04-12T10:56:34.296Z,7.70
2023-04-12T10:59:04.104Z,7.70
2023-04-12T11:01:33.689Z,8.50
2023-04-12T11:04:15.196Z,7.87
2023-04-12T11:07:02.615Z,9.47
2023-04-12T11:09:32.993Z,8.10
2023-04-12T11:12:11.089Z,7.73
2023-04-12T11:14:42.884Z,8.00
2023-04-12T11:17:13.424Z,8.40
2023-04-12T11:19:43.916Z,8.20
2023-04-12T11:22:16.506Z,8.73
2023-04-12T11:24:46.769Z,8.20
2023-04-12T11:27:16.922Z,7.73
2023-04-12T11:29:46.954Z,9.07
2023-04-12T11:32:15.812Z,7.93
2023-04-12T11:34:46.434Z,7.13
2023-04-12T11:37:15.756Z,7.30
2023-04-12T11:39:44.320Z,7.30
2023-04-12T11:42:17.128Z,7.17
2023-04-12T11:44:55.994Z,7.30
2023-04-12T11:47:16.209Z,7.10
2023-04-12T11:49:44.434Z,7.07
2023-04-12T11:52:12.637Z,6.93
2023-04-12T11:54:41.450Z,7.20
2023-04-12T11:57:10.356Z,7.20
2023-04-12T11:59:37.725Z,7.10
2023-04-12T12:02:21.560Z,7.60
2023-04-12T12:04:36.631Z,7.57
2023-04-12T12:07:06.753Z,7.40
2023-04-12T12:09:34.973Z,7.17
2023-04-12T12:12:02.735Z,7.50
2023-04-12T12:14:31.617Z,7.50
2023-04-12T12:16:59.773Z,7.23
2023-04-12T12:19:34.770Z,7.60
2023-04-12T12:22:09.759Z,8.33
2023-04-12T12:24:41.111Z,7.70
2023-04-12T12:27:06.707Z,7.87
2023-04-12T12:29:37.537Z,7.60
2023-04-12T12:32:12.140Z,7.37
2023-04-12T12:34:39.521Z,7.80
2023-04-12T12:37:10.542Z,9.20
2023-04-12T12:39:38.466Z,7.70
2023-04-12T12:42:06.324Z,8.10
2023-04-12T12:44:36.259Z,7.60
2023-04-12T12:47:10.096Z,7.93
2023-04-12T12:49:31.603Z,8.07
2023-04-12T12:51:58.993Z,7.33
2023-04-12T12:56:56.568Z,8.40
2023-04-12T12:59:25.876Z,8.00
2023-04-12T13:01:52.933Z,7.80
2023-04-12T13:04:20.949Z,7.80
2023-04-12T13:06:48.327Z,7.20
2023-04-12T13:09:15.890Z,7.60
2023-04-12T13:11:43.192Z,7.93
2023-04-12T13:14:10.484Z,7.60
2023-04-12T13:16:37.924Z,7.07
2023-04-12T13:19:05.244Z,7.23
2023-04-12T13:21:32.976Z,7.60
2023-04-12T13:24:00.517Z,7.60
2023-04-12T13:26:27.872Z,7.20
2023-04-12T13:28:55.203Z,7.80
2023-04-12T13:31:22.750Z,8.23
2023-04-12T13:33:50.142Z,7.80
2023-04-12T13:36:17.491Z,7.77
2023-04-12T13:38:44.858Z,7.80
2023-04-12T13:41:12.582Z,7.63
2023-04-12T13:43:40.146Z,7.33
2023-04-12T13:46:07.567Z,7.30
2023-04-12T13:48:34.917Z,7.00
2023-04-12T13:51:03.421Z,7.97
2023-04-12T13:53:31.063Z,7.93
2023-04-12T13:55:58.352Z,8.80
2023-04-12T13:58:25.784Z,7.80
2023-04-12T14:00:54.733Z,8.10
2023-04-12T14:03:22.283Z,7.60
2023-04-12T14:05:49.588Z,8.03
2023-04-12T14:08:17.062Z,7.80
2023-04-12T14:10:44.431Z,7.70
2023-04-12T14:13:11.748Z,7.80
2023-04-12T14:15:39.085Z,7.37
2023-04-12T14:18:06.495Z,11.50
2023-04-12T14:20:33.807Z,9.53
2023-04-12T14:23:01.201Z,9.10
2023-04-12T14:25:28.557Z,7.70
2023-04-12T14:27:55.952Z,8.40
2023-04-12T14:30:23.307Z,7.70
2023-04-12T14:32:50.723Z,8.20
2023-04-12T14:35:18.179Z,7.93
2023-04-12T14:37:46.586Z,9.37
2023-04-12T14:40:14.773Z,7.93
2023-04-12T14:42:42.543Z,8.20
2023-04-12T14:45:10.694Z,8.40
2023-04-12T14:47:38.076Z,9.60
2023-04-12T14:50:05.686Z,7.40
2023-04-12T14:52:33.046Z,9.00
2023-04-12T14:55:01.418Z,7.57
2023-04-12T14:57:28.769Z,8.30
2023-04-12T14:59:56.523Z,8.00
2023-04-12T15:02:24.996Z,7.40
2023-04-12T15:04:52.560Z,8.37
2023-04-12T15:07:20.380Z,8.10
2023-04-12T15:09:47.742Z,12.20
2023-04-12T15:12:15.223Z,8.90
2023-04-12T15:14:42.652Z,7.90
2023-04-12T15:17:10.712Z,11.23
2023-04-12T15:19:38.068Z,8.73
2023-04-12T15:22:05.440Z,7.87
2023-04-12T15:24:33.688Z,7.20
2023-04-12T15:27:01.627Z,7.80
2023-04-12T15:29:30.681Z,8.37
2023-04-12T15:31:58.411Z,7.50
2023-04-12T15:34:27.428Z,7.10
2023-04-12T15:36:55.128Z,6.93
2023-04-12T15:39:22.498Z,6.90
2023-04-12T15:41:49.836Z,7.00
2023-04-12T15:44:17.259Z,6.90
2023-04-12T15:46:47.293Z,7.40
2023-04-12T15:49:13.585Z,8.70
2023-04-12T15:51:41.024Z,6.83
2023-04-12T15:54:08.387Z,8.33
2023-04-12T15:56:37.321Z,7.83
2023-04-12T15:59:05.490Z,7.40
2023-04-12T16:01:34.501Z,7.00
2023-04-12T16:04:02.910Z,7.23
2023-04-12T16:06:32.192Z,6.70
2023-04-12T16:08:59.792Z,7.10
2023-04-12T16:11:27.956Z,6.73
2023-04-12T16:13:55.326Z,6.87
2023-04-12T16:16:23.735Z,7.10
2023-04-12T16:18:52.369Z,6.90
2023-04-12T16:21:20.499Z,7.40
2023-04-12T16:23:48.344Z,8.20
2023-04-12T16:26:18.878Z,7.00
2023-04-12T16:28:46.251Z,7.63
2023-04-12T16:31:15.329Z,7.10
2023-04-12T16:33:45.141Z,7.70
2023-04-12T16:36:12.610Z,7.00
2023-04-12T16:38:40.090Z,6.90
2023-04-12T16:41:07.496Z,7.17
2023-04-12T16:43:34.883Z,7.70
2023-04-12T16:46:05.643Z,11.87
2023-04-12T16:48:35.295Z,7.67
2023-04-12T16:51:03.184Z,6.87
2023-04-12T16:53:31.016Z,7.20
2023-04-12T16:56:01.414Z,7.20
2023-04-12T16:58:28.950Z,7.00
2023-04-12T17:00:56.669Z,7.30
2023-04-12T17:03:24.255Z,7.33
2023-04-12T17:05:52.136Z,9.20
2023-04-12T17:08:19.435Z,7.60
2023-04-12T17:10:46.793Z,7.77
2023-04-12T17:13:18.063Z,8.20
2023-04-12T17:15:47.840Z,7.63
2023-04-12T17:18:15.402Z,6.93
2023-04-12T17:20:43.217Z,7.07
2023-04-12T17:23:10.577Z,7.70
2023-04-12T17:25:37.987Z,7.80
2023-04-12T17:28:07.219Z,7.70
2023-04-12T17:30:34.588Z,6.87
2023-04-12T17:33:02.735Z,6.97
2023-04-12T17:35:30.148Z,8.17
2023-04-12T17:37:57.459Z,7.30
2023-04-12T17:40:24.809Z,7.30
2023-04-12T17:42:52.273Z,10.90
2023-04-12T17:45:21.368Z,7.20
2023-04-12T17:47:48.810Z,7.10
2023-04-12T17:50:16.202Z,9.47
2023-04-12T17:52:43.586Z,7.97
2023-04-12T17:55:12.169Z,9.47
2023-04-12T17:57:39.571Z,8.20
2023-04-12T18:00:11.290Z,6.97
2023-04-12T18:02:38.825Z,7.10
2023-04-12T18:05:07.292Z,7.80
2023-04-12T18:07:35.239Z,7.67
2023-04-12T18:10:02.967Z,11.80
2023-04-12T18:12:30.917Z,11.10
2023-04-12T18:14:58.640Z,7.07
2023-04-12T18:17:26.798Z,8.07
2023-04-12T18:19:54.657Z,7.63
2023-04-12T18:22:22.390Z,6.97
2023-04-12T18:24:49.761Z,7.50
2023-04-12T18:27:17.119Z,7.57
2023-04-12T18:29:44.778Z,8.20
2023-04-12T18:32:12.866Z,7.90
2023-04-12T18:34:40.254Z,7.87
2023-04-12T18:37:07.648Z,8.10
2023-04-12T18:39:35.597Z,8.60
2023-04-12T18:42:03.073Z,7.77
2023-04-12T18:44:32.367Z,8.03
2023-04-12T18:46:59.833Z,8.30
2023-04-12T18:49:27.194Z,6.80
2023-04-12T18:51:56.134Z,7.10
2023-04-12T18:54:23.569Z,7.77
2023-04-12T18:56:52.772Z,8.10
2023-04-12T18:59:20.310Z,9.67
2023-04-12T19:01:47.718Z,9.10
2023-04-12T19:04:16.201Z,9.00
2023-04-12T19:06:44.417Z,8.17
2023-04-12T19:09:11.773Z,7.53
2023-04-12T19:11:39.071Z,7.10
2023-04-12T19:14:07.298Z,6.90
2023-04-12T19:16:35.962Z,8.27
2023-04-12T19:19:03.441Z,6.90
2023-04-12T19:21:31.616Z,8.97
2023-04-12T19:23:59.664Z,9.37
2023-04-12T19:26:28.666Z,11.73
2023-04-12T19:28:57.794Z,6.80
2023-04-12T19:31:25.410Z,6.90
2023-04-12T19:33:54.231Z,6.77
2023-04-12T19:36:23.190Z,7.30
2023-04-12T19:38:50.779Z,7.40
2023-04-12T19:41:19.590Z,7.37
2023-04-12T19:43:47.413Z,7.10
2023-04-12T19:46:15.121Z,9.50
2023-04-12T19:48:42.825Z,8.33
2023-04-12T19:51:10.244Z,7.13
2023-04-12T19:53:37.545Z,7.20
2023-04-12T19:56:05.660Z,8.80
2023-04-12T19:58:33.214Z,8.90
2023-04-12T20:01:02.431Z,6.90
2023-04-12T20:03:29.762Z,7.00
2023-04-12T20:05:58.844Z,7.03
2023-04-12T20:08:27.834Z,7.77
2023-04-12T20:10:55.263Z,7.30
2023-04-12T20:13:22.637Z,11.03
2023-04-12T20:15:50.802Z,9.20
2023-04-12T20:18:18.240Z,7.40
2023-04-12T20:20:45.646Z,7.10
2023-04-12T20:23:13.896Z,7.20
2023-04-12T20:25:41.475Z,7.60
2023-04-12T20:28:09.721Z,9.43
2023-04-12T20:30:37.161Z,6.60
2023-04-12T20:33:04.687Z,6.90
2023-04-12T20:35:32.843Z,6.80
2023-04-12T20:38:00.292Z,10.70
2023-04-12T20:40:29.454Z,8.60
2023-04-12T20:42:56.992Z,8.70
2023-04-12T20:45:24.643Z,7.90
2023-04-12T20:47:52.240Z,10.00
2023-04-12T20:50:21.268Z,6.80
2023-04-12T20:52:49.122Z,8.13
2023-04-12T20:55:17.130Z,7.30
2023-04-12T20:57:44.603Z,7.40
2023-04-12T21:00:14.009Z,8.10
2023-04-12T21:02:41.500Z,7.40
2023-04-12T21:05:09.392Z,7.10
2023-04-12T21:07:37.357Z,7.80
2023-04-12T21:10:05.096Z,7.53
2023-04-12T21:12:32.386Z,8.57
2023-04-12T21:15:00.586Z,7.20
2023-04-12T21:17:29.636Z,7.67
2023-04-12T21:19:57.996Z,7.10
2023-04-12T21:22:25.442Z,7.90
2023-04-12T21:24:53.167Z,10.00
2023-04-12T21:27:20.737Z,8.20
2023-04-12T21:29:48.014Z,7.23
2023-04-12T21:32:15.386Z,7.90
2023-04-12T21:34:42.740Z,7.30
2023-04-12T21:37:10.716Z,7.77
2023-04-12T21:39:39.070Z,7.70
2023-04-12T21:42:06.437Z,7.57
2023-04-12T21:44:34.051Z,7.30
2023-04-12T21:47:01.350Z,8.30
2023-04-12T21:49:30.104Z,7.80
2023-04-12T21:51:58.950Z,7.37
2023-04-12T21:54:28.223Z,6.90
2023-04-12T21:56:55.898Z,10.47
2023-04-12T21:59:23.433Z,7.40
2023-04-12T22:01:50.758Z,8.30
2023-04-12T22:04:18.158Z,7.50
2023-04-12T22:06:45.839Z,7.57
2023-04-12T22:09:13.215Z,10.90
2023-04-12T22:11:40.580Z,9.43
2023-04-12T22:14:08.029Z,7.60
2023-04-12T22:16:35.444Z,7.40
2023-04-12T22:19:02.853Z,7.83
2023-04-12T22:21:32.664Z,8.47
2023-04-12T22:24:00.331Z,11.60
2023-04-12T22:26:27.978Z,7.00
2023-04-12T22:28:55.348Z,7.30
2023-04-12T22:31:23.136Z,9.77
2023-04-12T22:33:52.188Z,13.43
2023-04-12T22:36:19.552Z,8.10
2023-04-12T22:38:49.580Z,7.60
2023-04-12T22:41:17.304Z,9.90
2023-04-12T22:43:46.268Z,8.10
2023-04-12T22:46:18.333Z,7.17
2023-04-12T22:48:48.998Z,8.70
2023-04-12T22:51:16.363Z,8.77
2023-04-12T22:53:43.987Z,9.70
2023-04-12T22:56:14.005Z,7.30
2023-04-12T22:58:42.634Z,8.37
2023-04-12T23:01:10.593Z,7.83
2023-04-12T23:03:38.011Z,7.63
2023-04-12T23:06:05.538Z,7.70
2023-04-12T23:08:33.776Z,8.60
2023-04-12T23:11:04.493Z,8.07
2023-04-12T23:13:35.089Z,8.87
2023-04-12T23:16:03.517Z,8.30
2023-04-12T23:18:32.393Z,7.50
2023-04-12T23:21:01.233Z,8.13
2023-04-12T23:23:28.802Z,10.20
2023-04-12T23:25:56.102Z,8.47
2023-04-12T23:28:25.205Z,9.47
2023-04-12T23:30:52.557Z,8.73
2023-04-12T23:33:20.643Z,11.07
2023-04-12T23:35:49.327Z,8.60
2023-04-12T23:38:18.844Z,9.40
2023-04-12T23:40:46.653Z,9.70
2023-04-12T23:43:14.016Z,9.33
2023-04-12T23:45:41.318Z,8.37
2023-04-12T23:48:08.763Z,8.27
2023-04-12T23:50:36.519Z,9.23
2023-04-12T23:53:03.814Z,10.53
2023-04-12T23:55:31.543Z,9.90
2023-04-12T23:57:58.982Z,7.97
